createdAt,value
2022-12-06T00:01:11.434Z,37.90
2022-12-06T00:03:42.270Z,35.30
2022-12-06T00:06:15.006Z,41.10
2022-12-06T00:08:46.100Z,40.10
2022-12-06T00:11:17.628Z,39.50
2022-12-06T00:14:00.290Z,41.60
2022-12-06T00:16:30.488Z,42.60
2022-12-06T00:19:03.493Z,41.80
2022-12-06T00:21:42.350Z,38.30
2022-12-06T00:24:13.765Z,42.00
2022-12-06T00:26:50.817Z,34.40
2022-12-06T00:29:22.697Z,42.10
2022-12-06T00:31:52.171Z,43.40
2022-12-06T00:34:21.326Z,49.30
2022-12-06T00:36:49.968Z,46.10
2022-12-06T00:39:20.103Z,40.50
2022-12-06T00:41:48.851Z,38.80
2022-12-06T00:44:21.567Z,38.80
2022-12-06T00:46:50.453Z,45.00
2022-12-06T00:49:19.464Z,39.10
2022-12-06T00:51:48.990Z,45.70
2022-12-06T00:54:17.641Z,38.70
2022-12-06T00:56:49.137Z,39.30
2022-12-06T00:59:19.073Z,41.10
2022-12-06T01:01:51.023Z,49.90
2022-12-06T01:04:20.282Z,35.30
2022-12-06T01:06:50.823Z,42.20
2022-12-06T01:09:19.419Z,45.40
2022-12-06T01:11:48.496Z,37.00
2022-12-06T01:14:17.322Z,40.20
2022-12-06T01:16:45.920Z,40.90
2022-12-06T01:19:14.828Z,38.60
2022-12-06T01:21:45.067Z,38.00
2022-12-06T01:24:13.640Z,38.10
2022-12-06T01:26:45.906Z,41.00
2022-12-06T01:29:14.510Z,48.00
2022-12-06T01:31:43.876Z,46.80
2022-12-06T01:34:16.591Z,50.90
2022-12-06T01:36:46.760Z,49.50
2022-12-06T01:39:16.942Z,45.10
2022-12-06T01:41:47.190Z,47.70
2022-12-06T01:44:42.169Z,50.20
2022-12-06T01:47:20.881Z,38.50
2022-12-06T01:49:53.474Z,43.20
2022-12-06T01:52:25.914Z,41.40
2022-12-06T01:54:58.500Z,44.90
2022-12-06T01:57:28.335Z,39.80
2022-12-06T01:59:59.011Z,43.70
2022-12-06T02:02:34.322Z,41.80
2022-12-06T02:05:08.839Z,45.30
2022-12-06T02:07:44.025Z,46.40
2022-12-06T02:10:17.347Z,41.40
2022-12-06T02:12:54.036Z,44.50
2022-12-06T02:15:39.801Z,45.60
2022-12-06T02:18:20.991Z,41.30
2022-12-06T02:20:59.666Z,46.70
2022-12-06T02:24:03.790Z,41.10
2022-12-06T02:26:44.355Z,36.80
2022-12-06T02:29:48.038Z,40.40
2022-12-06T02:32:23.666Z,33.70
2022-12-06T02:35:03.726Z,47.80
2022-12-06T02:37:39.459Z,45.40
2022-12-06T02:40:14.407Z,41.20
2022-12-06T02:42:54.967Z,39.20
2022-12-06T02:48:18.596Z,46.70
2022-12-06T02:50:55.668Z,45.80
2022-12-06T02:53:28.144Z,43.60
2022-12-06T02:56:08.970Z,41.40
2022-12-06T02:58:38.420Z,43.00
2022-12-06T03:01:12.691Z,38.80
2022-12-06T03:04:07.191Z,40.70
2022-12-06T03:06:59.453Z,34.10
2022-12-06T03:10:01.158Z,41.50
2022-12-06T03:12:37.567Z,43.70
2022-12-06T03:15:14.693Z,41.20
2022-12-06T03:17:50.108Z,39.90
2022-12-06T03:20:29.884Z,46.90
2022-12-06T03:23:08.174Z,43.60
2022-12-06T03:25:38.360Z,46.30
2022-12-06T03:28:19.960Z,43.30
2022-12-06T03:30:52.793Z,43.90
2022-12-06T03:33:28.093Z,41.00
2022-12-06T03:35:58.841Z,37.60
2022-12-06T03:38:34.284Z,46.60
2022-12-06T03:41:09.145Z,45.20
2022-12-06T03:43:39.138Z,43.40
2022-12-06T03:46:13.805Z,43.20
2022-12-06T03:48:47.596Z,43.10
2022-12-06T03:51:22.025Z,37.60
2022-12-06T03:53:58.022Z,43.30
2022-12-06T03:56:27.734Z,46.10
2022-12-06T03:58:58.216Z,46.30
2022-12-06T04:01:28.247Z,44.60
2022-12-06T04:03:59.806Z,43.00
2022-12-06T04:06:30.485Z,36.80
2022-12-06T04:09:15.193Z,45.20
2022-12-06T04:11:48.263Z,40.60
2022-12-06T04:14:17.957Z,45.00
2022-12-06T04:17:07.436Z,48.40
2022-12-06T04:19:36.221Z,43.90
2022-12-06T04:22:19.569Z,45.90
2022-12-06T04:24:48.214Z,44.00
2022-12-06T04:27:35.356Z,45.50
2022-12-06T04:30:27.171Z,47.20
2022-12-06T04:33:19.738Z,40.30
2022-12-06T04:36:06.954Z,44.80
2022-12-06T04:38:42.020Z,42.90
2022-12-06T04:41:11.166Z,42.60
2022-12-06T04:43:44.268Z,41.90
2022-12-06T04:46:53.882Z,47.70
2022-12-06T04:49:27.609Z,49.90
2022-12-06T04:51:58.459Z,47.40
2022-12-06T04:57:22.861Z,45.20
2022-12-06T04:59:51.777Z,38.50
2022-12-06T05:02:24.157Z,43.70
2022-12-06T05:05:00.876Z,32.20
2022-12-06T05:07:33.030Z,41.90
2022-12-06T05:10:08.309Z,39.70
2022-12-06T05:12:37.003Z,43.30
2022-12-06T05:15:07.519Z,40.70
2022-12-06T05:17:38.358Z,42.90
2022-12-06T05:20:13.811Z,40.50
2022-12-06T05:22:45.299Z,41.40
2022-12-06T05:25:16.332Z,39.80
2022-12-06T05:27:44.997Z,41.40
2022-12-06T05:30:14.854Z,37.70
2022-12-06T05:32:43.469Z,42.90
2022-12-06T05:35:30.707Z,42.00
2022-12-06T05:38:04.451Z,41.60
2022-12-06T05:40:33.343Z,48.90
2022-12-06T05:43:05.276Z,37.90
2022-12-06T05:45:37.458Z,35.20
2022-12-06T05:48:07.625Z,39.60
2022-12-06T05:50:41.835Z,39.70
2022-12-06T05:53:13.630Z,37.10
2022-12-06T05:55:43.175Z,34.20
2022-12-06T05:58:19.310Z,41.60
2022-12-06T06:00:53.994Z,33.10
2022-12-06T06:03:28.359Z,26.00
2022-12-06T06:06:02.983Z,30.90
2022-12-06T06:08:35.665Z,31.50
2022-12-06T06:11:18.389Z,30.70
2022-12-06T06:13:54.071Z,31.40
2022-12-06T06:16:23.172Z,30.30
2022-12-06T06:18:54.532Z,32.70
2022-12-06T06:21:23.564Z,29.80
2022-12-06T06:23:52.195Z,33.00
2022-12-06T06:26:21.738Z,29.90
2022-12-06T06:28:50.754Z,30.70
2022-12-06T06:31:25.609Z,29.30
2022-12-06T06:33:54.782Z,29.30
2022-12-06T06:36:26.724Z,29.20
2022-12-06T06:38:55.998Z,23.70
2022-12-06T06:41:25.404Z,29.60
2022-12-06T06:43:59.670Z,34.20
2022-12-06T06:46:30.689Z,27.20
2022-12-06T06:49:03.054Z,27.50
2022-12-06T06:51:32.358Z,25.80
2022-12-06T06:54:00.865Z,27.20
2022-12-06T06:56:29.601Z,33.40
2022-12-06T06:58:58.603Z,29.40
2022-12-06T07:01:27.486Z,31.00
2022-12-06T07:03:56.268Z,30.80
2022-12-06T07:06:28.085Z,33.30
2022-12-06T07:08:58.837Z,29.40
2022-12-06T07:11:27.413Z,27.90
2022-12-06T07:14:02.607Z,33.20
2022-12-06T07:16:31.212Z,28.10
2022-12-06T07:19:02.414Z,34.90
2022-12-06T07:21:36.092Z,33.50
2022-12-06T07:24:05.113Z,28.40
2022-12-06T07:26:34.227Z,33.00
2022-12-06T07:29:05.178Z,29.80
2022-12-06T07:31:37.004Z,27.10
2022-12-06T07:34:16.108Z,32.00
2022-12-06T07:36:44.694Z,25.60
2022-12-06T07:39:15.015Z,26.60
2022-12-06T07:42:11.295Z,22.00
2022-12-06T07:45:09.810Z,28.70
2022-12-06T07:47:41.186Z,24.10
2022-12-06T07:50:17.663Z,25.60
2022-12-06T07:52:48.853Z,28.80
2022-12-06T07:55:18.720Z,30.90
2022-12-06T07:57:47.308Z,25.30
2022-12-06T08:00:17.639Z,29.10
2022-12-06T08:02:47.518Z,30.30
2022-12-06T08:05:16.424Z,28.80
2022-12-06T08:07:44.959Z,28.00
2022-12-06T08:10:14.243Z,27.10
2022-12-06T08:12:42.942Z,29.10
2022-12-06T08:15:12.617Z,24.10
2022-12-06T08:17:41.724Z,33.20
2022-12-06T08:20:12.391Z,20.50
2022-12-06T08:22:43.290Z,30.30
2022-12-06T08:25:11.914Z,26.90
2022-12-06T08:27:41.009Z,32.80
2022-12-06T08:30:10.403Z,33.20
2022-12-06T08:32:41.645Z,32.90
2022-12-06T08:35:12.799Z,31.30
2022-12-06T08:37:41.477Z,29.30
2022-12-06T08:40:11.468Z,35.50
2022-12-06T08:42:41.410Z,34.50
2022-12-06T08:45:10.709Z,31.20
2022-12-06T08:47:39.171Z,36.40
2022-12-06T08:50:09.211Z,31.00
2022-12-06T08:52:38.007Z,37.00
2022-12-06T08:55:08.623Z,45.30
2022-12-06T08:57:37.249Z,40.40
2022-12-06T09:00:09.732Z,37.40
2022-12-06T09:02:40.417Z,44.00
2022-12-06T09:05:14.007Z,44.20
2022-12-06T09:07:42.504Z,40.00
2022-12-06T09:10:15.314Z,38.50
2022-12-06T09:12:43.589Z,38.10
2022-12-06T09:15:12.827Z,41.60
2022-12-06T09:17:41.871Z,39.40
2022-12-06T09:20:17.600Z,46.10
2022-12-06T09:22:46.607Z,44.60
2022-12-06T09:25:15.533Z,44.70
2022-12-06T09:27:44.836Z,40.30
2022-12-06T09:30:15.365Z,38.20
2022-12-06T09:32:47.905Z,36.30
2022-12-06T09:35:20.909Z,36.40
2022-12-06T09:37:52.349Z,37.60
2022-12-06T09:40:30.825Z,39.40
2022-12-06T09:45:56.753Z,33.80
2022-12-06T09:48:49.081Z,37.60
2022-12-06T09:51:31.457Z,40.30
2022-12-06T09:54:19.728Z,42.80
2022-12-06T09:57:06.250Z,41.40
2022-12-06T09:59:49.854Z,35.60
2022-12-06T10:02:33.309Z,40.00
2022-12-06T10:05:30.362Z,45.70
2022-12-06T10:08:10.822Z,43.80
2022-12-06T10:10:52.334Z,35.60
2022-12-06T10:13:32.925Z,40.20
2022-12-06T10:16:12.420Z,35.90
2022-12-06T10:18:58.070Z,40.50
2022-12-06T10:21:37.937Z,44.10
2022-12-06T10:24:22.167Z,48.40
2022-12-06T10:26:52.642Z,45.30
2022-12-06T10:29:29.944Z,47.10
2022-12-06T10:32:10.825Z,39.10
2022-12-06T10:34:51.748Z,45.40
2022-12-06T10:37:36.528Z,43.00
2022-12-06T10:40:17.212Z,43.80
2022-12-06T10:42:51.584Z,39.10
2022-12-06T10:45:49.559Z,43.70
2022-12-06T10:48:25.832Z,43.10
2022-12-06T10:51:08.568Z,45.00
2022-12-06T10:53:42.661Z,41.90
2022-12-06T10:56:17.246Z,40.90
2022-12-06T10:58:54.262Z,34.10
2022-12-06T11:01:28.041Z,36.80
2022-12-06T11:04:01.561Z,36.80
2022-12-06T11:06:36.048Z,43.00
2022-12-06T11:09:15.673Z,44.80
2022-12-06T11:11:51.267Z,36.40
2022-12-06T11:14:28.564Z,41.70
2022-12-06T11:17:03.919Z,43.90
2022-12-06T11:19:36.612Z,46.70
2022-12-06T11:22:15.100Z,43.10
2022-12-06T11:24:50.796Z,50.30
2022-12-06T11:27:26.765Z,42.00
2022-12-06T11:29:56.410Z,40.90
2022-12-06T11:32:28.520Z,41.60
2022-12-06T11:35:00.556Z,47.10
2022-12-06T11:37:33.699Z,48.40
2022-12-06T11:40:15.030Z,49.20
2022-12-06T11:42:44.038Z,46.00
2022-12-06T11:45:24.523Z,48.80
2022-12-06T11:47:54.833Z,37.30
2022-12-06T11:50:28.724Z,39.60
2022-12-06T11:53:02.256Z,41.70
2022-12-06T11:55:36.875Z,40.50
2022-12-06T11:58:13.029Z,41.90
2022-12-06T12:00:58.339Z,43.70
2022-12-06T12:03:28.824Z,49.90
2022-12-06T12:06:18.411Z,48.30
2022-12-06T12:08:58.526Z,45.00
2022-12-06T12:11:29.743Z,52.30
2022-12-06T12:14:03.228Z,48.90
2022-12-06T12:16:48.785Z,44.80
2022-12-06T12:19:31.435Z,37.50
2022-12-06T12:22:13.523Z,47.10
2022-12-06T12:27:48.573Z,43.40
2022-12-06T12:30:26.343Z,41.10
2022-12-06T12:33:20.903Z,44.80
2022-12-06T12:35:52.589Z,48.50
2022-12-06T12:38:32.246Z,45.60
2022-12-06T12:41:04.604Z,58.50
2022-12-06T12:43:34.539Z,61.40
2022-12-06T12:46:15.643Z,45.80
2022-12-06T12:48:46.738Z,51.80
2022-12-06T12:51:33.044Z,55.00
2022-12-06T12:54:04.176Z,54.60
2022-12-06T12:56:36.373Z,50.40
2022-12-06T12:59:13.567Z,53.10
2022-12-06T13:01:52.204Z,46.60
2022-12-06T13:04:36.293Z,44.00
2022-12-06T13:07:11.394Z,39.60
2022-12-06T13:09:48.259Z,47.50
2022-12-06T13:12:27.863Z,56.90
2022-12-06T13:15:02.837Z,49.00
2022-12-06T13:17:37.854Z,51.70
2022-12-06T13:20:22.470Z,58.60
2022-12-06T13:22:54.258Z,61.50
2022-12-06T13:25:23.184Z,58.80
2022-12-06T13:27:56.366Z,55.70
2022-12-06T13:30:30.124Z,47.80
2022-12-06T13:33:02.648Z,51.50
2022-12-06T13:35:37.700Z,44.90
2022-12-06T13:38:26.844Z,60.50
2022-12-06T13:40:58.385Z,56.60
2022-12-06T13:43:59.957Z,58.40
2022-12-06T13:46:47.705Z,54.20
2022-12-06T13:49:49.004Z,54.20
2022-12-06T13:53:04.025Z,49.10
2022-12-06T13:55:59.140Z,56.40
2022-12-06T13:58:53.790Z,54.20
2022-12-06T14:01:49.256Z,59.80
2022-12-06T14:04:38.891Z,59.80
2022-12-06T14:09:44.773Z,53.40
2022-12-06T14:12:22.248Z,69.50
2022-12-06T14:15:06.138Z,61.40
2022-12-06T14:18:01.576Z,64.30
2022-12-06T14:20:30.274Z,64.00
2022-12-06T14:23:00.108Z,56.50
2022-12-06T14:25:30.879Z,54.50
2022-12-06T14:28:05.499Z,52.70
2022-12-06T14:30:36.176Z,60.80
2022-12-06T14:33:18.418Z,63.90
2022-12-06T14:36:02.611Z,57.20
2022-12-06T14:38:31.957Z,60.30
2022-12-06T14:41:19.123Z,61.30
2022-12-06T14:43:48.344Z,61.70
2022-12-06T14:46:22.092Z,68.60
2022-12-06T14:49:09.725Z,66.20
2022-12-06T14:51:43.255Z,55.00
2022-12-06T14:54:34.516Z,58.90
2022-12-06T14:57:18.066Z,64.90
2022-12-06T15:00:25.918Z,63.80
2022-12-06T15:02:40.703Z,66.90
2022-12-06T15:05:31.682Z,64.40
2022-12-06T15:08:17.180Z,62.40
2022-12-06T15:10:55.403Z,65.20
2022-12-06T15:13:27.324Z,65.60
2022-12-06T15:16:10.574Z,62.90
2022-12-06T15:18:54.567Z,70.40
2022-12-06T15:21:23.751Z,60.00
2022-12-06T15:23:57.362Z,60.60
2022-12-06T15:26:26.243Z,68.80
2022-12-06T15:28:55.095Z,56.90
2022-12-06T15:31:26.743Z,64.70
2022-12-06T15:34:01.619Z,70.60
2022-12-06T15:36:32.825Z,57.50
2022-12-06T15:39:01.616Z,57.80
2022-12-06T15:41:30.851Z,56.40
2022-12-06T15:44:00.367Z,63.00
2022-12-06T15:46:29.917Z,50.90
2022-12-06T15:48:59.601Z,55.00
2022-12-06T15:51:29.308Z,56.90
2022-12-06T15:53:59.817Z,63.90
2022-12-06T15:56:31.455Z,59.20
2022-12-06T15:59:05.751Z,70.40
2022-12-06T16:01:44.882Z,65.30
2022-12-06T16:04:17.313Z,57.30
2022-12-06T16:06:46.954Z,62.40
2022-12-06T16:09:19.092Z,71.20
2022-12-06T16:11:52.100Z,56.20
2022-12-06T16:14:21.718Z,56.10
2022-12-06T16:16:50.396Z,59.30
2022-12-06T16:19:19.099Z,51.60
2022-12-06T16:21:55.092Z,61.80
2022-12-06T16:24:24.060Z,55.30
2022-12-06T16:26:52.755Z,62.90
2022-12-06T16:29:24.337Z,50.50
2022-12-06T16:31:53.964Z,49.70
2022-12-06T16:34:23.114Z,41.50
2022-12-06T16:36:58.971Z,53.90
2022-12-06T16:39:28.833Z,44.40
2022-12-06T16:41:58.825Z,45.80
2022-12-06T16:44:27.521Z,42.70
2022-12-06T16:46:56.435Z,37.30
2022-12-06T16:52:17.497Z,43.00
2022-12-06T16:54:46.183Z,37.20
2022-12-06T16:57:15.253Z,37.40
2022-12-06T16:59:44.048Z,34.90
2022-12-06T17:02:26.085Z,37.40
2022-12-06T17:04:59.638Z,36.50
2022-12-06T17:07:28.439Z,38.00
2022-12-06T17:10:00.501Z,35.80
2022-12-06T17:12:29.173Z,40.30
2022-12-06T17:15:00.444Z,48.40
2022-12-06T17:17:29.556Z,45.40
2022-12-06T17:20:00.209Z,42.60
2022-12-06T17:22:29.448Z,41.60
2022-12-06T17:25:01.365Z,36.80
2022-12-06T17:27:34.187Z,42.30
2022-12-06T17:30:02.954Z,32.70
2022-12-06T17:32:34.344Z,38.60
2022-12-06T17:35:03.688Z,38.60
2022-12-06T17:37:32.800Z,38.30
2022-12-06T17:40:03.943Z,41.30
2022-12-06T17:42:51.276Z,37.40
2022-12-06T17:45:24.651Z,39.10
2022-12-06T17:47:53.761Z,37.40
2022-12-06T17:50:22.961Z,41.30
2022-12-06T17:52:51.603Z,42.70
2022-12-06T17:55:20.163Z,37.30
2022-12-06T17:57:49.081Z,40.70
2022-12-06T18:00:19.035Z,39.70
2022-12-06T18:02:48.167Z,37.30
2022-12-06T18:05:17.333Z,40.30
2022-12-06T18:07:46.063Z,32.90
2022-12-06T18:10:14.805Z,32.40
2022-12-06T18:12:43.648Z,32.00
2022-12-06T18:15:27.129Z,38.80
2022-12-06T18:17:56.134Z,41.30
2022-12-06T18:20:24.860Z,37.90
2022-12-06T18:22:56.193Z,35.20
2022-12-06T18:25:25.162Z,36.20
2022-12-06T18:27:56.781Z,33.40
2022-12-06T18:30:26.381Z,34.90
2022-12-06T18:32:55.121Z,44.40
2022-12-06T18:35:23.724Z,43.30
2022-12-06T18:37:53.663Z,46.50
2022-12-06T18:40:22.406Z,59.30
2022-12-06T18:42:51.202Z,53.80
2022-12-06T18:45:20.211Z,65.70
2022-12-06T18:47:48.963Z,56.10
2022-12-06T18:50:17.858Z,54.70
2022-12-06T18:52:49.560Z,51.90
2022-12-06T18:55:19.964Z,59.30
2022-12-06T18:57:48.835Z,58.80
2022-12-06T19:00:18.702Z,58.40
2022-12-06T19:02:47.304Z,58.70
2022-12-06T19:05:33.030Z,58.90
2022-12-06T19:10:38.669Z,64.90
2022-12-06T19:13:07.475Z,51.60
2022-12-06T19:15:47.429Z,56.60
2022-12-06T19:18:17.836Z,61.20
2022-12-06T19:20:48.303Z,78.80
2022-12-06T19:23:17.903Z,63.50
2022-12-06T19:25:46.708Z,61.30
2022-12-06T19:28:15.921Z,76.00
2022-12-06T19:30:45.044Z,66.70
2022-12-06T19:33:17.621Z,67.90
2022-12-06T19:35:59.335Z,65.10
2022-12-06T19:38:28.659Z,60.90
2022-12-06T19:40:58.913Z,66.80
2022-12-06T19:43:46.277Z,66.20
2022-12-06T19:46:17.485Z,58.40
2022-12-06T19:48:47.375Z,55.80
2022-12-06T19:51:20.123Z,59.00
2022-12-06T19:53:51.938Z,60.70
2022-12-06T19:56:20.897Z,57.40
2022-12-06T19:58:49.573Z,57.30
2022-12-06T20:01:21.274Z,55.00
2022-12-06T20:03:50.652Z,66.80
2022-12-06T20:06:23.360Z,70.90
2022-12-06T20:08:54.339Z,61.20
2022-12-06T20:11:53.034Z,60.90
2022-12-06T20:14:22.854Z,63.40
2022-12-06T20:16:53.943Z,75.00
2022-12-06T20:19:24.057Z,64.90
2022-12-06T20:21:52.971Z,61.60
2022-12-06T20:24:26.581Z,55.10
2022-12-06T20:26:56.095Z,57.70
2022-12-06T20:29:29.536Z,51.80
2022-12-06T20:32:00.697Z,50.80
2022-12-06T20:34:33.329Z,49.20
2022-12-06T20:37:05.803Z,50.90
2022-12-06T20:39:35.284Z,48.60
2022-12-06T20:42:12.251Z,48.90
2022-12-06T20:44:41.289Z,45.30
2022-12-06T20:47:12.833Z,46.60
2022-12-06T20:49:44.823Z,50.40
2022-12-06T20:52:16.325Z,43.40
2022-12-06T20:54:45.329Z,42.90
2022-12-06T20:57:16.599Z,41.30
2022-12-06T20:59:45.434Z,45.20
2022-12-06T21:02:14.388Z,42.30
2022-12-06T21:04:43.717Z,44.00
2022-12-06T21:07:12.318Z,48.80
2022-12-06T21:09:40.983Z,50.40
2022-12-06T21:12:09.707Z,61.20
2022-12-06T21:14:38.432Z,59.10
2022-12-06T21:17:07.816Z,60.20
2022-12-06T21:19:37.169Z,61.20
2022-12-06T21:22:08.720Z,59.20
2022-12-06T21:24:38.803Z,61.00
2022-12-06T21:27:10.058Z,57.30
2022-12-06T21:29:42.128Z,53.70
2022-12-06T21:32:10.744Z,56.60
2022-12-06T21:34:45.974Z,57.00
2022-12-06T21:37:17.697Z,57.20
2022-12-06T21:39:47.041Z,58.50
2022-12-06T21:42:16.508Z,56.10
2022-12-06T21:44:45.136Z,54.30
2022-12-06T21:47:15.356Z,54.50
2022-12-06T21:49:43.939Z,52.80
2022-12-06T21:52:13.260Z,50.80
2022-12-06T21:54:41.945Z,53.90
2022-12-06T21:57:10.468Z,53.20
2022-12-06T21:59:39.619Z,47.60
2022-12-06T22:02:10.313Z,55.10
2022-12-06T22:04:39.425Z,49.10
2022-12-06T22:07:08.504Z,47.90
2022-12-06T22:09:37.175Z,47.90
2022-12-06T22:12:06.892Z,44.00
2022-12-06T22:14:35.950Z,45.40
2022-12-06T22:17:07.662Z,43.80
2022-12-06T22:19:37.073Z,48.70
2022-12-06T22:22:05.621Z,45.30
2022-12-06T22:24:36.520Z,44.60
2022-12-06T22:27:05.746Z,48.80
2022-12-06T22:29:34.284Z,46.80
2022-12-06T22:32:03.847Z,48.60
2022-12-06T22:34:32.556Z,49.40
2022-12-06T22:37:01.163Z,48.90
2022-12-06T22:39:32.985Z,46.70
2022-12-06T22:42:01.701Z,48.10
2022-12-06T22:44:30.880Z,52.50
2022-12-06T22:47:01.974Z,46.40
2022-12-06T22:49:30.786Z,52.70
2022-12-06T22:52:00.900Z,56.80
2022-12-06T22:54:29.512Z,62.80
2022-12-06T22:57:01.194Z,57.90
2022-12-06T22:59:29.920Z,56.60
2022-12-06T23:02:02.354Z,51.00
2022-12-06T23:04:34.269Z,59.70
2022-12-06T23:07:05.187Z,54.00
2022-12-06T23:09:34.595Z,52.70
2022-12-06T23:12:04.904Z,55.00
2022-12-06T23:14:33.742Z,58.10
2022-12-06T23:17:05.258Z,48.00
2022-12-06T23:19:37.161Z,55.70
2022-12-06T23:22:06.165Z,56.70
2022-12-06T23:24:34.957Z,53.70
2022-12-06T23:27:06.291Z,57.30
2022-12-06T23:29:34.995Z,50.10
2022-12-06T23:32:06.346Z,46.50
2022-12-06T23:34:35.348Z,56.80
2022-12-06T23:37:04.179Z,54.50
2022-12-06T23:39:32.692Z,58.50
2022-12-06T23:42:01.193Z,57.00
2022-12-06T23:44:30.061Z,52.10
2022-12-06T23:47:01.733Z,55.20
2022-12-06T23:49:31.028Z,55.70
2022-12-06T23:52:02.529Z,54.30
2022-12-06T23:54:31.480Z,58.00
2022-12-06T23:57:01.053Z,57.00
2022-12-06T23:59:31.166Z,60.20
